Time;durP1;ratioP1;P1;durP2;ratioP2;P2;SDS_P1;SDS_P2;PMS_P1;PMS_P2;Temp;Humidity;BMP_temperature;BMP_pressure;BME280_temperature;BME280_humidity;BME280_pressure;Samples;Min_cycle;Max_cycle;Signal;HPM_P1;HPM_P2
2022/08/02 00:01:13;;;;;;;;;;;;;;;24.07;37.84;100124.53;5016520;28;20372;-79
2022/08/02 00:03:38;;;;;;;;;;;;;;;24.10;38.03;100123.97;5016135;28;19933;-77
2022/08/02 00:06:03;;;;;;;;;;;;;;;24.07;38.21;100114.44;5015324;28;19921;-79
2022/08/02 00:08:29;;;;;;;;;;;;;;;24.08;37.77;100129.72;5016566;28;20367;-78
2022/08/02 00:10:54;;;;;;;;;;;;;;;24.06;38.21;100126.47;5016402;28;19940;-78
2022/08/02 00:13:19;;;;;;;;;;;;;;;24.07;38.20;100119.09;5016315;28;20344;-79
2022/08/02 00:15:45;;;;;;;;;;;;;;;24.09;38.16;100120.41;5016186;28;19918;-78
2022/08/02 00:18:10;;;;;;;;;;;;;;;24.05;37.93;100127.56;5015713;28;19917;-79
2022/08/02 00:20:35;;;;;;;;;;;;;;;24.06;37.90;100121.00;5015979;28;19924;-78
2022/08/02 00:23:01;;;;;;;;;;;;;;;24.05;38.20;100127.56;5015758;28;20364;-78
2022/08/02 00:25:26;;;;;;;;;;;;;;;24.08;37.88;100126.19;5015720;28;19917;-80
2022/08/02 00:27:51;;;;;;;;;;;;;;;24.05;38.15;100113.91;5015966;28;19956;-78
2022/08/02 00:30:16;;;;;;;;;;;;;;;24.05;37.95;100121.28;5016119;28;20001;-79
2022/08/02 00:32:42;;;;;;;;;;;;;;;24.02;37.93;100114.47;5015667;28;20382;-78
2022/08/02 00:35:07;;;;;;;;;;;;;;;24.02;38.03;100111.75;5015793;28;19936;-79
2022/08/02 00:37:37;;;;;;;;;;;;;;;24.02;38.20;100105.47;5015400;28;20394;-78
2022/08/02 00:40:02;;;;;;;;;;;;;;;24.01;37.94;100107.41;5015430;28;20360;-77
2022/08/02 00:42:27;;;;;;;;;;;;;;;24.00;38.14;100095.66;5002154;28;19949;-79
2022/08/02 00:44:52;;;;;;;;;;;;;;;24.03;38.14;100105.19;4994668;28;20000;-77
2022/08/02 00:47:18;;;;;;;;;;;;;;;24.03;38.14;100105.19;4996570;28;20415;-78
2022/08/02 00:49:43;;;;;;;;;;;;;;;24.00;38.07;100092.09;4996163;28;19922;-79
2022/08/02 00:52:11;;;;;;;;;;;;;;;23.99;38.00;100088.56;4995826;28;20320;-77
2022/08/02 00:54:36;;;;;;;;;;;;;;;24.00;38.07;100082.00;4996157;28;19918;-79
2022/08/02 00:57:02;;;;;;;;;;;;;;;23.97;38.12;100085.31;4995350;28;20363;-78
2022/08/02 00:59:27;;;;;;;;;;;;;;;23.99;37.99;100098.66;4994681;28;19925;-77
2022/08/02 01:01:54;;;;;;;;;;;;;;;23.98;38.23;100097.84;4995611;28;19941;-80
2022/08/02 01:04:19;;;;;;;;;;;;;;;24.00;37.94;100089.38;4995729;28;20287;-76
2022/08/02 01:06:44;;;;;;;;;;;;;;;24.00;38.02;100094.84;4995542;28;19937;-78
2022/08/02 01:09:10;;;;;;;;;;;;;;;24.00;37.87;100094.84;4995545;28;19925;-77
2022/08/02 01:11:35;;;;;;;;;;;;;;;23.99;38.00;100096.75;4995579;28;19918;-78
2022/08/02 01:14:03;;;;;;;;;;;;;;;23.99;37.98;100093.19;4995173;28;19949;-76
2022/08/02 01:16:30;;;;;;;;;;;;;;;24.00;38.08;100094.84;4995103;28;19945;-78
2022/08/02 01:18:56;;;;;;;;;;;;;;;23.98;38.09;100097.03;4995603;28;19981;-78
2022/08/02 01:21:21;;;;;;;;;;;;;;;23.99;38.08;100093.19;4993837;28;19918;-77
2022/08/02 01:23:49;;;;;;;;;;;;;;;23.98;38.05;100091.59;4995186;28;20017;-78
2022/08/02 01:26:33;;;;;;;;;;;;;;;23.97;38.18;100095.41;4995600;28;19918;-79
2022/08/02 01:28:58;;;;;;;;;;;;;;;23.97;38.06;100095.41;4995123;28;19925;-79
2022/08/02 01:31:27;;;;;;;;;;;;;;;23.98;38.18;100097.03;4995370;28;20360;-77
2022/08/02 01:34:10;;;;;;;;;;;;;;;23.98;37.97;100099.78;4994980;28;19918;-78
2022/08/02 01:36:37;;;;;;;;;;;;;;;23.98;38.09;100099.78;4994801;28;19957;-78
2022/08/02 01:39:04;;;;;;;;;;;;;;;23.96;38.02;100099.25;4995421;28;19972;-79
2022/08/02 01:41:29;;;;;;;;;;;;;;;23.96;38.11;100102.78;4998332;28;20016;-75
2022/08/02 01:43:55;;;;;;;;;;;;;;;23.94;38.00;100102.25;5014694;28;19960;-78
2022/08/02 01:46:21;;;;;;;;;;;;;;;23.95;37.98;100101.13;5014594;28;19918;-80
2022/08/02 01:48:46;;;;;;;;;;;;;;;23.94;37.98;100101.41;5014440;28;19987;-78
2022/08/02 01:51:12;;;;;;;;;;;;;;;23.96;37.93;100105.50;5014189;28;19924;-78
2022/08/02 01:53:37;;;;;;;;;;;;;;;23.95;38.18;100103.88;5012973;28;20020;-78
2022/08/02 01:56:03;;;;;;;;;;;;;;;23.95;38.21;100103.06;5013150;28;20363;-78
2022/08/02 01:58:29;;;;;;;;;;;;;;;23.95;38.45;100103.06;5013932;28;19917;-80
2022/08/02 02:00:55;;;;;;;;;;;;;;;23.95;38.23;100094.88;5014405;28;19921;-78
2022/08/02 02:03:21;;;;;;;;;;;;;;;23.95;38.18;100097.59;5014436;28;20056;-79
2022/08/02 02:05:46;;;;;;;;;;;;;;;23.92;38.09;100098.16;5013337;28;19917;-76
2022/08/02 02:08:12;;;;;;;;;;;;;;;23.95;38.13;100097.59;5013153;28;19918;-78
2022/08/02 02:10:37;;;;;;;;;;;;;;;23.95;38.11;100097.59;5013331;28;20009;-77
2022/08/02 02:13:06;;;;;;;;;;;;;;;23.93;37.99;100099.81;5014320;28;19918;-78
2022/08/02 02:15:32;;;;;;;;;;;;;;;23.96;38.12;100097.31;5014184;28;20012;-79
2022/08/02 02:17:57;;;;;;;;;;;;;;;23.94;38.05;100098.69;5013957;28;20012;-76
2022/08/02 02:20:22;;;;;;;;;;;;;;;23.91;38.04;100102.00;5013198;28;20253;-79
2022/08/02 02:22:48;;;;;;;;;;;;;;;23.92;37.89;100098.16;5013277;28;20390;-77
2022/08/02 02:25:13;;;;;;;;;;;;;;;23.92;38.04;100099.00;5014463;28;19941;-78
2022/08/02 02:27:42;;;;;;;;;;;;;;;23.92;37.70;100100.91;5013963;28;20344;-77
2022/08/02 02:30:07;;;;;;;;;;;;;;;23.93;37.98;100105.25;5012826;28;19976;-77
2022/08/02 02:32:32;;;;;;;;;;;;;;;23.90;37.74;100095.72;5013953;28;19917;-79
2022/08/02 02:34:58;;;;;;;;;;;;;;;23.92;37.78;100098.16;5012502;28;19964;-78
2022/08/02 02:37:23;;;;;;;;;;;;;;;23.91;37.79;100096.56;5014173;28;19928;-80
2022/08/02 02:39:49;;;;;;;;;;;;;;;23.89;37.94;100091.38;5013928;28;20295;-78
2022/08/02 02:42:15;;;;;;;;;;;;;;;23.91;37.87;100091.09;5002890;28;20016;-80
2022/08/02 02:44:40;;;;;;;;;;;;;;;23.90;38.06;100092.19;4993388;28;19918;-76
2022/08/02 02:47:05;;;;;;;;;;;;;;;23.91;38.00;100088.38;4993571;28;19926;-78
2022/08/02 02:49:31;;;;;;;;;;;;;;;23.90;37.85;100089.44;4994660;28;20140;-77
2022/08/02 02:51:57;;;;;;;;;;;;;;;23.92;37.81;100087.25;4994836;28;19917;-78
2022/08/02 02:54:22;;;;;;;;;;;;;;;23.92;38.08;100092.72;4993641;28;19918;-80
2022/08/02 02:56:47;;;;;;;;;;;;;;;23.90;37.94;100094.91;4993291;28;20295;-77
2022/08/02 02:59:14;;;;;;;;;;;;;;;23.92;37.86;100092.72;4993451;28;20382;-78
2022/08/02 03:01:39;;;;;;;;;;;;;;;23.91;37.95;100088.38;4993971;28;20371;-76
2022/08/02 03:04:05;;;;;;;;;;;;;;;23.90;38.29;100094.91;4994116;28;20010;-78
2022/08/02 03:06:31;;;;;;;;;;;;;;;23.88;38.04;100097.13;4997770;28;20004;-80
2022/08/02 03:08:56;;;;;;;;;;;;;;;23.86;38.28;100097.41;4996744;28;20365;-77
2022/08/02 03:11:22;;;;;;;;;;;;;;;23.87;38.14;100090.00;4996639;28;20387;-80
2022/08/02 03:13:47;;;;;;;;;;;;;;;23.86;38.35;100086.47;4996594;28;19918;-78
2022/08/02 03:16:13;;;;;;;;;;;;;;;23.88;38.33;100091.66;4997680;28;20407;-79
2022/08/02 03:18:39;;;;;;;;;;;;;;;23.88;38.28;100086.19;4997086;28;19960;-77
2022/08/02 03:21:05;;;;;;;;;;;;;;;23.89;38.48;100090.56;4997746;28;19944;-78
2022/08/02 03:23:30;;;;;;;;;;;;;;;23.88;38.56;100095.19;4997550;28;19917;-76
2022/08/02 03:25:55;;;;;;;;;;;;;;;23.90;38.56;100089.44;4997521;28;19963;-79
2022/08/02 03:28:21;;;;;;;;;;;;;;;23.89;38.63;100093.28;4997733;28;20368;-76
2022/08/02 03:30:46;;;;;;;;;;;;;;;23.88;38.66;100097.13;4997614;28;19922;-78
2022/08/02 03:33:11;;;;;;;;;;;;;;;23.87;38.84;100098.19;4997396;28;19918;-77
2022/08/02 03:35:37;;;;;;;;;;;;;;;23.89;38.92;100098.75;4996075;28;19964;-78
2022/08/02 03:38:02;;;;;;;;;;;;;;;23.88;38.99;100097.13;4997498;28;19924;-80
2022/08/02 03:40:28;;;;;;;;;;;;;;;23.88;38.94;100105.31;4996207;28;19917;-77
2022/08/02 03:42:53;;;;;;;;;;;;;;;23.87;38.92;100101.75;5009779;28;20433;-80
2022/08/02 03:45:18;;;;;;;;;;;;;;;23.87;39.17;100098.19;5015753;28;19918;-76
2022/08/02 03:47:43;;;;;;;;;;;;;;;23.87;39.28;100095.47;5016694;28;20000;-79
2022/08/02 03:50:12;;;;;;;;;;;;;;;23.87;39.18;100096.31;5016530;28;19925;-77
2022/08/02 03:52:38;;;;;;;;;;;;;;;23.91;39.29;100102.00;5015355;28;19996;-77
2022/08/02 03:55:03;;;;;;;;;;;;;;;23.92;39.22;100103.63;5016420;28;19964;-79
2022/08/02 03:57:28;;;;;;;;;;;;;;;23.95;39.19;100103.06;5016369;28;19925;-77
2022/08/02 03:59:54;;;;;;;;;;;;;;;23.99;39.29;100107.69;5015235;28;19921;-80
2022/08/02 04:02:19;;;;;;;;;;;;;;;24.02;39.18;100097.28;5016643;28;20360;-77
2022/08/02 04:04:44;;;;;;;;;;;;;;;24.03;39.19;100099.72;5017325;28;20087;-80
2022/08/02 04:07:09;;;;;;;;;;;;;;;24.02;39.59;100100.81;5016618;28;20356;-77
2022/08/02 04:09:35;;;;;;;;;;;;;;;24.03;39.60;100094.28;5016882;28;19972;-78
2022/08/02 04:12:00;;;;;;;;;;;;;;;24.04;39.84;100089.63;5016748;28;20458;-77
2022/08/02 04:14:25;;;;;;;;;;;;;;;24.07;39.64;100089.06;5016582;28;20388;-77
2022/08/02 04:16:51;;;;;;;;;;;;;;;24.11;39.84;100092.84;5015245;28;19925;-80
2022/08/02 04:19:26;;;;;;;;;;;;;;;24.09;40.31;100097.78;5015384;28;20372;-77
2022/08/02 04:21:51;;;;;;;;;;;;;;;24.12;39.87;100097.22;5016758;28;20406;-78
2022/08/02 04:24:17;;;;;;;;;;;;;;;24.14;39.97;100095.00;5016516;28;19922;-78
2022/08/02 04:26:43;;;;;;;;;;;;;;;24.15;40.00;100091.19;5015112;28;19924;-76
2022/08/02 04:29:09;;;;;;;;;;;;;;;24.16;40.22;100092.78;5014948;28;19925;-80
2022/08/02 04:31:34;;;;;;;;;;;;;;;24.17;40.20;100089.78;5015456;28;19998;-77
2022/08/02 04:33:59;;;;;;;;;;;;;;;24.19;40.08;100093.03;5014957;28;19996;-79
2022/08/02 04:36:24;;;;;;;;;;;;;;;24.17;40.32;100089.78;5016068;28;19924;-79
2022/08/02 04:38:50;;;;;;;;;;;;;;;24.20;40.33;100099.34;5016323;28;19917;-77
2022/08/02 04:41:15;;;;;;;;;;;;;;;24.18;40.53;100096.88;5015592;28;20282;-79
2022/08/02 04:43:40;;;;;;;;;;;;;;;24.24;40.23;100096.84;4996532;28;19917;-77
2022/08/02 04:46:05;;;;;;;;;;;;;;;24.25;40.21;100098.47;4996395;28;20264;-80
2022/08/02 04:48:31;;;;;;;;;;;;;;;24.24;40.29;100089.47;4994775;28;19953;-78
2022/08/02 04:50:56;;;;;;;;;;;;;;;24.26;40.39;100098.19;4995726;28;20260;-77
2022/08/02 04:53:21;;;;;;;;;;;;;;;24.28;40.29;100100.63;4995680;28;20009;-79
2022/08/02 04:55:46;;;;;;;;;;;;;;;24.27;40.43;100099.81;4994841;28;19917;-77
2022/08/02 04:58:12;;;;;;;;;;;;;;;24.26;40.34;100102.81;4996030;28;19918;-78
2022/08/02 05:00:37;;;;;;;;;;;;;;;24.25;40.41;100101.19;4996027;28;19964;-81
2022/08/02 05:03:03;;;;;;;;;;;;;;;24.30;40.13;100104.72;4995700;28;20288;-77
2022/08/02 05:05:28;;;;;;;;;;;;;;;24.30;40.53;100092.94;4996091;28;20356;-79
2022/08/02 05:07:53;;;;;;;;;;;;;;;24.30;40.61;100098.41;4996080;28;20403;-77
2022/08/02 05:10:18;;;;;;;;;;;;;;;24.30;40.05;100101.16;4996144;28;19918;-78
2022/08/02 05:12:44;;;;;;;;;;;;;;;24.37;40.02;100098.91;4996016;28;20376;-81
2022/08/02 05:15:10;;;;;;;;;;;;;;;24.42;39.89;100096.13;4995739;28;19924;-76
2022/08/02 05:17:35;;;;;;;;;;;;;;;24.34;40.45;100094.84;4995712;28;19918;-79
2022/08/02 05:20:00;;;;;;;;;;;;;;;24.33;40.31;100109.56;4995738;28;19922;-77
2022/08/02 05:22:26;;;;;;;;;;;;;;;24.41;40.48;100102.69;4994929;28;20024;-77
2022/08/02 05:24:51;;;;;;;;;;;;;;;24.44;40.53;100098.56;4994982;28;19917;-80
2022/08/02 05:27:16;;;;;;;;;;;;;;;24.43;40.18;100097.75;4994356;28;19937;-77
2022/08/02 05:29:42;;;;;;;;;;;;;;;24.33;40.39;100108.78;4994992;28;19922;-77
2022/08/02 05:32:07;;;;;;;;;;;;;;;24.34;40.41;100102.22;4995256;28;20334;-80
2022/08/02 05:34:32;;;;;;;;;;;;;;;24.44;40.29;100104.84;4995190;28;19929;-78
2022/08/02 05:36:57;;;;;;;;;;;;;;;24.50;40.18;100100.97;4995707;28;19918;-78
2022/08/02 05:39:23;;;;;;;;;;;;;;;24.56;40.47;100107.25;4995313;28;20292;-78
2022/08/02 05:41:48;;;;;;;;;;;;;;;24.60;40.59;100096.56;4999255;28;19928;-78
2022/08/02 05:44:13;;;;;;;;;;;;;;;24.63;40.43;100095.94;5014348;28;19921;-78
2022/08/02 05:46:38;;;;;;;;;;;;;;;24.57;40.49;100095.19;5014328;28;19936;-76
2022/08/02 05:49:04;;;;;;;;;;;;;;;24.55;40.37;100094.69;5014474;28;19961;-76
2022/08/02 05:51:36;;;;;;;;;;;;;;;24.51;40.45;100094.41;5014653;28;20326;-77
2022/08/02 05:54:09;;;;;;;;;;;;;;;24.54;40.28;100090.31;5014625;28;20287;-79
2022/08/02 05:56:40;;;;;;;;;;;;;;;24.59;40.39;100098.44;5012936;28;19921;-77
2022/08/02 05:59:08;;;;;;;;;;;;;;;24.50;40.63;100091.97;5014961;28;19924;-78
2022/08/02 06:01:36;;;;;;;;;;;;;;;24.49;40.53;100095.78;5014443;28;19977;-80
2022/08/02 06:04:04;;;;;;;;;;;;;;;24.60;40.19;100096.56;5014514;28;19976;-80
2022/08/02 06:06:29;;;;;;;;;;;;;;;24.63;40.22;100093.22;5014520;28;19964;-77
2022/08/02 06:08:57;;;;;;;;;;;;;;;24.59;40.31;100100.38;5014742;28;19999;-80
2022/08/02 06:11:23;;;;;;;;;;;;;;;24.66;40.17;100089.91;5015231;28;19933;-82
2022/08/02 06:13:48;;;;;;;;;;;;;;;24.49;40.60;100091.16;5014475;28;20332;-78
2022/08/02 06:16:13;;;;;;;;;;;;;;;24.37;40.62;100088.81;5014305;28;20360;-79
2022/08/02 06:18:41;;;;;;;;;;;;;;;24.35;41.02;100091.00;5015294;28;19921;-80
2022/08/02 06:21:10;;;;;;;;;;;;;;;24.38;40.77;100086.88;5014662;28;20008;-82
2022/08/02 06:23:39;;;;;;;;;;;;;;;24.45;40.83;100090.09;5015056;28;19939;-79
2022/08/02 06:26:04;;;;;;;;;;;;;;;24.56;40.42;100079.94;5014861;28;19921;-79
2022/08/02 06:28:30;;;;;;;;;;;;;;;24.55;40.19;100084.56;5014026;28;19926;-83
2022/08/02 06:30:55;;;;;;;;;;;;;;;24.50;40.41;100087.31;5013783;28;20367;-80
2022/08/02 06:33:20;;;;;;;;;;;;;;;24.64;39.98;100087.47;5014882;28;19952;-81
2022/08/02 06:36:02;;;;;;;;;;;;;;;24.59;40.38;100082.06;5014607;28;20008;-81
2022/08/02 06:38:30;;;;;;;;;;;;;;;24.51;40.31;100083.47;5014936;28;19917;-80
2022/08/02 06:41:00;;;;;;;;;;;;;;;24.54;40.30;100082.94;5017842;28;20008;-82
2022/08/02 06:43:28;;;;;;;;;;;;;;;24.53;40.41;100080.47;5002878;28;19922;-80
2022/08/02 06:45:53;;;;;;;;;;;;;;;24.54;40.27;100080.22;4999194;28;19918;-80
2022/08/02 06:48:19;;;;;;;;;;;;;;;24.54;40.44;100087.56;4999775;28;19925;-81
2022/08/02 06:50:44;;;;;;;;;;;;;;;24.58;40.32;100082.34;4999255;28;19922;-87
2022/08/02 06:53:09;;;;;;;;;;;;;;;24.61;40.12;100084.50;4999495;28;19918;-80
2022/08/02 06:55:35;;;;;;;;;;;;;;;24.74;40.12;100092.03;4998515;28;19917;-80
2022/08/02 06:58:01;;;;;;;;;;;;;;;24.77;40.33;100096.09;4998477;28;19925;-81
2022/08/02 07:00:27;;;;;;;;;;;;;;;24.77;40.02;100096.91;4998801;28;19918;-81
2022/08/02 07:02:52;;;;;;;;;;;;;;;24.79;40.15;100096.63;4998563;28;20048;-78
2022/08/02 07:05:18;;;;;;;;;;;;;;;24.84;39.92;100102.84;4998534;28;19924;-78
2022/08/02 07:07:43;;;;;;;;;;;;;;;24.80;40.06;100096.34;4998261;28;20012;-78
2022/08/02 07:10:08;;;;;;;;;;;;;;;24.84;39.87;100097.38;4997494;28;19918;-78
2022/08/02 07:12:34;;;;;;;;;;;;;;;24.85;39.81;100095.44;4999709;28;19921;-81
2022/08/02 07:14:59;;;;;;;;;;;;;;;24.87;39.98;100093.25;4998492;28;19918;-78
2022/08/02 07:17:24;;;;;;;;;;;;;;;24.78;40.20;100092.25;4999667;28;19968;-77
2022/08/02 07:19:50;;;;;;;;;;;;;;;24.88;39.95;100095.69;4999192;28;19932;-80
2022/08/02 07:22:17;;;;;;;;;;;;;;;24.83;40.14;100093.00;4998604;28;19973;-79
2022/08/02 07:24:42;;;;;;;;;;;;;;;25.01;39.46;100096.09;4999234;28;20004;-82
2022/08/02 07:27:08;;;;;;;;;;;;;;;25.01;39.32;100096.09;4998867;28;20280;-80
2022/08/02 07:29:33;;;;;;;;;;;;;;;24.95;39.58;100095.34;4998507;28;19922;-78
2022/08/02 07:31:58;;;;;;;;;;;;;;;25.01;39.20;100096.91;4999589;28;20283;-78
2022/08/02 07:34:23;;;;;;;;;;;;;;;25.04;39.12;100103.72;4998924;28;19922;-79
2022/08/02 07:36:49;;;;;;;;;;;;;;;25.02;39.19;100106.72;4998623;28;19924;-80
2022/08/02 07:39:14;;;;;;;;;;;;;;;24.98;39.09;100107.63;4998495;28;19922;-78
2022/08/02 07:41:39;;;;;;;;;;;;;;;24.96;39.01;100112.53;4999415;28;19917;-78
2022/08/02 07:44:04;;;;;;;;;;;;;;;24.98;39.17;100102.97;4998490;28;19918;-79
2022/08/02 07:46:32;;;;;;;;;;;;;;;25.01;39.17;100107.03;4998729;28;19964;-82
2022/08/02 07:48:57;;;;;;;;;;;;;;;25.04;39.14;100106.44;4998676;28;19925;-82
2022/08/02 07:51:22;;;;;;;;;;;;;;;24.93;39.33;100103.03;4997192;28;19918;-77
2022/08/02 07:53:48;;;;;;;;;;;;;;;24.93;39.25;100114.75;4997963;28;19921;-80
2022/08/02 07:56:13;;;;;;;;;;;;;;;24.89;39.41;100116.47;4997414;28;19917;-80
2022/08/02 07:58:40;;;;;;;;;;;;;;;24.91;39.05;100110.72;4997913;28;19925;-82
2022/08/02 08:01:05;;;;;;;;;;;;;;;24.97;38.77;100116.91;4997144;28;20394;-79
2022/08/02 08:03:30;;;;;;;;;;;;;;;24.90;38.99;100114.53;4997236;28;19917;-79
2022/08/02 08:05:55;;;;;;;;;;;;;;;25.00;39.10;100113.63;4998008;28;19940;-78
2022/08/02 08:08:21;;;;;;;;;;;;;;;24.98;38.96;100102.16;4997418;28;19917;-81
2022/08/02 08:10:46;;;;;;;;;;;;;;;25.12;38.50;100103.88;4997885;28;19921;-81
2022/08/02 08:13:11;;;;;;;;;;;;;;;25.19;38.48;100103.53;4997570;28;19919;-79
2022/08/02 08:15:37;;;;;;;;;;;;;;;25.14;38.41;100113.72;4997638;28;19964;-78
2022/08/02 08:18:02;;;;;;;;;;;;;;;25.14;38.35;100106.31;4997812;28;20356;-76
2022/08/02 08:20:28;;;;;;;;;;;;;;;25.05;38.31;100111.63;4998632;28;19971;-79
2022/08/02 08:22:53;;;;;;;;;;;;;;;25.00;38.76;100121.81;4998230;28;19918;-78
2022/08/02 08:25:18;;;;;;;;;;;;;;;24.96;38.64;100120.75;4998652;28;20287;-79
2022/08/02 08:27:51;;;;;;;;;;;;;;;25.01;38.64;100128.88;4998130;28;20385;-84
2022/08/02 08:30:16;;;;;;;;;;;;;;;25.07;38.49;100123.06;4998103;28;19918;-83
2022/08/02 08:32:42;;;;;;;;;;;;;;;25.13;38.22;100123.84;4998180;28;19921;-81
2022/08/02 08:35:08;;;;;;;;;;;;;;;25.09;37.96;100122.78;4997988;28;19954;-80
2022/08/02 08:37:37;;;;;;;;;;;;;;;25.15;38.33;100120.81;4997298;28;19924;-80
2022/08/02 08:40:05;;;;;;;;;;;;;;;25.14;38.12;100125.47;4996781;28;20422;-80
2022/08/02 08:42:31;;;;;;;;;;;;;;;25.18;37.77;100125.69;5001059;28;20384;-82
2022/08/02 08:44:57;;;;;;;;;;;;;;;25.17;38.01;100133.09;5015133;28;19921;-82
2022/08/02 08:47:25;;;;;;;;;;;;;;;25.14;38.09;100136.41;5016426;28;19917;-85
2022/08/02 08:49:50;;;;;;;;;;;;;;;25.21;37.86;100136.88;5015086;28;19925;-82
2022/08/02 08:52:15;;;;;;;;;;;;;;;25.23;37.71;100134.69;5016336;28;19917;-81
2022/08/02 08:54:41;;;;;;;;;;;;;;;25.29;37.46;100130.78;5015055;28;19925;-82
2022/08/02 08:57:06;;;;;;;;;;;;;;;25.34;37.70;100142.78;5016206;28;20352;-82
2022/08/02 08:59:31;;;;;;;;;;;;;;;25.29;37.47;100141.72;5016752;28;19929;-82
2022/08/02 09:01:57;;;;;;;;;;;;;;;25.32;37.43;100145.81;5016069;28;20375;-84
2022/08/02 09:04:22;;;;;;;;;;;;;;;25.37;37.49;100142.19;5014663;28;19917;-82
2022/08/02 09:06:47;;;;;;;;;;;;;;;25.35;37.31;100134.25;5016413;28;20356;-82
2022/08/02 09:09:12;;;;;;;;;;;;;;;25.34;37.20;100131.84;5016592;28;19917;-79
2022/08/02 09:11:38;;;;;;;;;;;;;;;25.38;37.33;100132.88;5016033;28;20260;-82
2022/08/02 09:14:03;;;;;;;;;;;;;;;25.38;37.29;100143.81;5016257;28;19971;-82
2022/08/02 09:16:29;;;;;;;;;;;;;;;25.23;37.27;100144.78;5015728;28;19932;-85
2022/08/02 09:18:54;;;;;;;;;;;;;;;25.33;37.39;100146.63;5016731;28;19922;-80
2022/08/02 09:21:19;;;;;;;;;;;;;;;25.36;37.17;100151.50;5016429;28;20012;-80
2022/08/02 09:23:45;;;;;;;;;;;;;;;25.24;37.07;100149.97;5016555;28;19918;-81
2022/08/02 09:26:11;;;;;;;;;;;;;;;25.21;37.49;100153.28;5016101;28;19935;-79
2022/08/02 09:28:38;;;;;;;;;;;;;;;25.33;37.18;100149.34;5014605;28;20379;-79
2022/08/02 09:31:03;;;;;;;;;;;;;;;25.34;36.92;100148.25;5015247;28;20059;-82
2022/08/02 09:33:28;;;;;;;;;;;;;;;25.38;36.92;100152.84;5014861;28;19918;-81
2022/08/02 09:35:58;;;;;;;;;;;;;;;25.28;37.22;100145.59;5015751;28;19925;-77
2022/08/02 09:38:23;;;;;;;;;;;;;;;25.34;37.32;100145.53;5014950;28;19917;-78
2022/08/02 09:40:48;;;;;;;;;;;;;;;25.35;36.81;100138.94;5014799;28;19921;-78
2022/08/02 09:43:15;;;;;;;;;;;;;;;25.27;36.98;100143.94;5006857;28;19937;-79
2022/08/02 09:45:40;;;;;;;;;;;;;;;25.25;37.03;100139.81;4996311;28;19918;-78
2022/08/02 09:48:05;;;;;;;;;;;;;;;25.24;37.16;100144.50;4994780;28;19925;-79
2022/08/02 09:50:31;;;;;;;;;;;;;;;25.30;36.77;100140.63;4996935;28;19933;-78
2022/08/02 09:53:03;;;;;;;;;;;;;;;25.34;36.93;100137.31;4995614;28;19918;-79
2022/08/02 09:55:28;;;;;;;;;;;;;;;25.26;36.82;100136.84;4997377;28;19940;-79
2022/08/02 09:57:53;;;;;;;;;;;;;;;25.32;36.98;100123.09;4996262;28;20102;-80
2022/08/02 10:00:19;;;;;;;;;;;;;;;25.40;36.59;100133.41;4994769;28;19918;-81
2022/08/02 10:03:03;;;;;;;;;;;;;;;25.36;36.80;100146.03;4995971;28;20348;-80
2022/08/02 10:05:29;;;;;;;;;;;;;;;25.25;37.07;100134.34;4995905;28;19918;-79
2022/08/02 10:07:54;;;;;;;;;;;;;;;25.26;37.23;100136.84;4996020;28;19921;-83
2022/08/02 10:10:19;;;;;;;;;;;;;;;25.18;37.12;100132.00;4996417;28;19924;-81
2022/08/02 10:12:44;;;;;;;;;;;;;;;25.18;37.26;100134.72;4995331;28;20323;-81
2022/08/02 10:15:10;;;;;;;;;;;;;;;25.16;36.52;100131.44;4997640;28;19965;-80
2022/08/02 10:17:35;;;;;;;;;;;;;;;25.11;37.16;100131.50;4999261;28;19918;-81
2022/08/02 10:20:00;;;;;;;;;;;;;;;25.20;37.04;100132.50;4998269;28;19925;-80
2022/08/02 10:22:25;;;;;;;;;;;;;;;25.31;37.04;100127.75;4999406;28;19924;-83
2022/08/02 10:24:51;;;;;;;;;;;;;;;25.21;36.94;100139.59;4998212;28;19940;-80
2022/08/02 10:27:17;;;;;;;;;;;;;;;25.32;36.88;100145.81;4999266;28;20364;-80
2022/08/02 10:29:43;;;;;;;;;;;;;;;25.26;36.65;100139.56;5000066;28;19922;-78
2022/08/02 10:32:09;;;;;;;;;;;;;;;25.20;37.04;100137.16;4998854;28;19917;-81
2022/08/02 10:34:35;;;;;;;;;;;;;;;25.20;36.83;100135.25;4999082;28;19928;-80
2022/08/02 10:37:03;;;;;;;;;;;;;;;25.43;36.65;100135.56;4998934;28;20016;-82
2022/08/02 10:39:37;;;;;;;;;;;;;;;25.31;36.51;100141.44;4998403;28;19941;-82
2022/08/02 10:42:02;;;;;;;;;;;;;;;25.36;36.35;100146.84;4997803;28;19922;-83
2022/08/02 10:44:28;;;;;;;;;;;;;;;25.28;36.51;100134.66;5016171;28;20324;-83
2022/08/02 10:47:12;;;;;;;;;;;;;;;25.30;36.57;100140.63;5018284;28;19917;-82
2022/08/02 10:49:51;;;;;;;;;;;;;;;25.20;36.68;100128.94;5018263;28;20016;-83
2022/08/02 10:52:16;;;;;;;;;;;;;;;25.28;36.40;100123.72;5018293;28;19921;-80
2022/08/02 10:55:02;;;;;;;;;;;;;;;25.29;35.92;100127.25;5016880;28;20039;-82
2022/08/02 10:57:27;;;;;;;;;;;;;;;25.25;36.28;100145.28;5018433;28;19981;-80
2022/08/02 10:59:57;;;;;;;;;;;;;;;25.17;36.10;100133.09;5019493;28;20380;-79
2022/08/02 11:02:41;;;;;;;;;;;;;;;25.21;36.31;100128.66;5017785;28;19972;-82
2022/08/02 11:05:10;;;;;;;;;;;;;;;25.30;35.96;100128.84;5018778;28;19923;-79
2022/08/02 11:07:35;;;;;;;;;;;;;;;25.40;36.04;100123.25;5017815;28;19956;-77
2022/08/02 11:10:20;;;;;;;;;;;;;;;25.33;35.94;100125.53;5018345;28;19924;-79
2022/08/02 11:13:04;;;;;;;;;;;;;;;25.30;36.18;100143.38;5017826;28;19917;-79
2022/08/02 11:15:29;;;;;;;;;;;;;;;25.24;36.14;100132.75;5018688;28;19918;-78
2022/08/02 11:17:55;;;;;;;;;;;;;;;25.17;36.25;100127.63;5017712;28;19929;-78
2022/08/02 11:20:21;;;;;;;;;;;;;;;25.18;36.39;100134.72;5018607;28;20034;-79
2022/08/02 11:22:47;;;;;;;;;;;;;;;25.22;36.15;100132.22;5016871;28;20367;-78
2022/08/02 11:25:24;;;;;;;;;;;;;;;25.21;35.98;100116.91;5016523;28;20360;-76
2022/08/02 11:27:50;;;;;;;;;;;;;;;25.29;35.79;100122.59;5016850;28;20064;-78
2022/08/02 11:30:15;;;;;;;;;;;;;;;25.34;35.78;100129.91;5017104;28;19941;-78
2022/08/02 11:32:42;;;;;;;;;;;;;;;25.32;35.61;100131.31;5017383;28;19917;-78
2022/08/02 11:35:07;;;;;;;;;;;;;;;25.29;35.72;100140.91;5018068;28;19944;-79
2022/08/02 11:37:36;;;;;;;;;;;;;;;25.31;35.80;100141.44;5016278;28;20335;-80
2022/08/02 11:40:02;;;;;;;;;;;;;;;25.38;35.80;100155.56;5017273;28;19940;-81
2022/08/02 11:42:31;;;;;;;;;;;;;;;25.40;35.65;100169.75;5016999;28;20326;-83
2022/08/02 11:44:56;;;;;;;;;;;;;;;25.36;35.74;100178.88;4998214;28;19918;-78
2022/08/02 11:47:23;;;;;;;;;;;;;;;25.43;35.84;100184.78;4998862;28;19972;-77
2022/08/02 11:49:48;;;;;;;;;;;;;;;25.42;35.70;100185.88;4998034;28;19959;-77
2022/08/02 11:52:13;;;;;;;;;;;;;;;25.41;35.79;100182.34;4998500;28;20052;-78
2022/08/02 11:54:40;;;;;;;;;;;;;;;25.41;35.71;100187.81;4997631;28;19922;-78
2022/08/02 11:57:19;;;;;;;;;;;;;;;25.43;35.76;100190.25;4998255;28;20360;-79
2022/08/02 11:59:45;;;;;;;;;;;;;;;25.36;36.03;100190.59;4999210;28;19922;-78
2022/08/02 12:02:10;;;;;;;;;;;;;;;25.46;35.78;100192.41;4998489;28;20341;-79
2022/08/02 12:04:36;;;;;;;;;;;;;;;25.50;36.00;100196.19;4998544;28;19918;-79
2022/08/02 12:07:01;;;;;;;;;;;;;;;25.39;35.76;100202.88;4997416;28;20004;-81
2022/08/02 12:09:27;;;;;;;;;;;;;;;25.43;36.04;100212.16;4998109;28;19918;-78
2022/08/02 12:11:52;;;;;;;;;;;;;;;25.28;35.91;100216.69;4999359;28;20372;-78
2022/08/02 12:14:18;;;;;;;;;;;;;;;25.37;36.07;100210.56;4999943;28;20008;-80
2022/08/02 12:19:28;;;;;;;;;;;;;;;25.45;35.84;100210.72;4999862;28;20395;-85
2022/08/02 12:22:06;;;;;;;;;;;;;;;25.46;35.86;100217.84;4999843;28;19926;-80
2022/08/02 12:24:31;;;;;;;;;;;;;;;25.52;35.71;100209.56;5000481;28;19918;-83
2022/08/02 12:26:56;;;;;;;;;;;;;;;25.48;35.36;100210.16;4999244;28;20434;-83
2022/08/02 12:29:31;;;;;;;;;;;;;;;25.49;35.48;100213.69;4999305;28;20015;-82
2022/08/02 12:31:57;;;;;;;;;;;;;;;25.47;35.44;100218.66;4998090;28;19944;-81
2022/08/02 12:34:23;;;;;;;;;;;;;;;25.40;35.74;100218.19;4999486;28;19918;-79